createdAt,value
2023-09-18T00:02:10.328Z,1.45
2023-09-18T00:04:44.994Z,2.20
2023-09-18T00:07:13.476Z,2.08
2023-09-18T00:09:43.918Z,3.17
2023-09-18T00:12:29.792Z,3.70
2023-09-18T00:14:59.773Z,2.70
2023-09-18T00:17:47.972Z,4.28
2023-09-18T00:20:17.006Z,3.30
2023-09-18T00:22:49.939Z,2.97
2023-09-18T00:25:19.569Z,3.75
2023-09-18T00:27:55.181Z,2.63
2023-09-18T00:30:36.685Z,3.15
2023-09-18T00:33:06.442Z,2.75
2023-09-18T00:35:33.829Z,2.08
2023-09-18T00:38:04.638Z,2.60
2023-09-18T00:40:34.931Z,2.22
2023-09-18T00:43:11.056Z,2.28
2023-09-18T00:45:52.269Z,2.13
2023-09-18T00:48:20.664Z,2.13
2023-09-18T00:50:59.086Z,2.15
2023-09-18T00:53:43.406Z,2.25
2023-09-18T00:56:15.488Z,1.63
2023-09-18T00:58:47.852Z,1.65
2023-09-18T01:01:25.184Z,1.70
2023-09-18T01:03:54.604Z,1.48
2023-09-18T01:06:31.969Z,1.45
2023-09-18T01:09:05.483Z,1.30
2023-09-18T01:11:43.472Z,1.40
2023-09-18T01:14:31.831Z,1.10
2023-09-18T01:17:01.871Z,1.38
2023-09-18T01:19:50.584Z,1.65
2023-09-18T01:25:07.892Z,1.80
2023-09-18T01:27:39.562Z,2.20
2023-09-18T01:30:07.247Z,2.33
2023-09-18T01:32:39.766Z,1.85
2023-09-18T01:35:09.591Z,2.00
2023-09-18T01:37:40.882Z,2.33
2023-09-18T01:40:09.596Z,2.28
2023-09-18T01:42:37.135Z,1.35
2023-09-18T01:45:07.741Z,1.45
2023-09-18T01:47:42.352Z,1.73
2023-09-18T01:50:13.074Z,1.58
2023-09-18T01:52:40.347Z,1.95
2023-09-18T01:55:09.041Z,1.55
2023-09-18T01:57:36.869Z,1.40
2023-09-18T02:00:14.383Z,1.23
2023-09-18T02:03:10.959Z,1.40
2023-09-18T02:05:42.966Z,1.23
2023-09-18T02:08:10.661Z,1.10
2023-09-18T02:10:49.325Z,1.40
2023-09-18T02:13:25.368Z,1.35
2023-09-18T02:15:52.856Z,1.30
2023-09-18T02:18:27.447Z,1.42
2023-09-18T02:20:55.820Z,1.50
2023-09-18T02:23:25.233Z,1.38
2023-09-18T02:26:05.225Z,1.13
2023-09-18T02:28:33.535Z,1.40
2023-09-18T02:31:05.308Z,1.40
2023-09-18T02:33:32.235Z,1.65
2023-09-18T02:35:59.632Z,1.80
2023-09-18T02:38:31.191Z,1.42
2023-09-18T02:40:58.676Z,1.60
2023-09-18T02:43:31.145Z,1.45
2023-09-18T02:46:02.594Z,1.42
2023-09-18T02:48:38.230Z,1.35
2023-09-18T02:51:05.478Z,1.42
2023-09-18T02:53:35.358Z,1.13
2023-09-18T02:56:03.014Z,1.05
2023-09-18T02:58:33.749Z,1.60
2023-09-18T03:01:09.869Z,1.38
2023-09-18T03:03:37.347Z,1.00
2023-09-18T03:06:07.861Z,1.25
2023-09-18T03:08:46.484Z,1.30
2023-09-18T03:11:34.060Z,1.52
2023-09-18T03:14:02.638Z,1.40
2023-09-18T03:16:51.770Z,1.13
2023-09-18T03:19:25.380Z,1.23
2023-09-18T03:21:53.860Z,1.33
2023-09-18T03:24:38.575Z,1.27
2023-09-18T03:27:09.547Z,1.23
2023-09-18T03:29:41.443Z,0.95
2023-09-18T03:32:19.125Z,1.50
2023-09-18T03:34:48.036Z,1.45
2023-09-18T03:37:23.113Z,1.45
2023-09-18T03:40:00.606Z,1.10
2023-09-18T03:42:30.114Z,1.50
2023-09-18T03:45:01.752Z,1.98
2023-09-18T03:47:40.622Z,1.95
2023-09-18T03:50:09.680Z,1.77
2023-09-18T03:52:37.715Z,1.58
2023-09-18T03:55:05.036Z,2.05
2023-09-18T03:57:32.135Z,1.70
2023-09-18T03:59:59.160Z,1.70
2023-09-18T04:02:28.576Z,1.73
2023-09-18T04:04:58.172Z,1.38
2023-09-18T04:07:25.114Z,1.65
2023-09-18T04:09:52.139Z,2.13
2023-09-18T04:12:19.073Z,1.63
2023-09-18T04:14:46.769Z,2.13
2023-09-18T04:17:48.791Z,1.92
2023-09-18T04:20:24.458Z,2.63
2023-09-18T04:23:23.224Z,2.17
2023-09-18T04:26:04.135Z,1.80
2023-09-18T04:28:37.877Z,1.55
2023-09-18T04:31:05.269Z,2.15
2023-09-18T04:33:35.519Z,1.83
2023-09-18T04:36:02.744Z,1.92
2023-09-18T04:38:32.143Z,1.92
2023-09-18T04:41:09.691Z,2.40
2023-09-18T04:43:37.166Z,2.00
2023-09-18T04:46:12.054Z,2.03
2023-09-18T04:48:40.635Z,2.40
2023-09-18T04:51:19.186Z,1.83
2023-09-18T04:54:08.543Z,2.50
2023-09-18T04:56:44.997Z,2.30
2023-09-18T04:59:23.297Z,2.75
2023-09-18T05:01:50.655Z,2.65
2023-09-18T05:04:24.092Z,2.42
2023-09-18T05:06:55.363Z,2.30
2023-09-18T05:09:25.009Z,2.55
2023-09-18T05:11:55.364Z,2.63
2023-09-18T05:14:26.726Z,2.38
2023-09-18T05:16:56.504Z,2.20
2023-09-18T05:19:26.201Z,2.33
2023-09-18T05:21:58.061Z,2.45
2023-09-18T05:24:38.466Z,2.42
2023-09-18T05:27:08.858Z,2.47
2023-09-18T05:29:38.988Z,2.65
2023-09-18T05:32:16.870Z,2.85
2023-09-18T05:34:47.208Z,2.13
2023-09-18T05:37:18.206Z,2.65
2023-09-18T05:39:48.693Z,2.45
2023-09-18T05:42:16.489Z,2.53
2023-09-18T05:44:53.477Z,2.63
2023-09-18T05:47:22.304Z,2.63
2023-09-18T05:49:49.533Z,2.70
2023-09-18T05:52:16.913Z,2.65
2023-09-18T05:54:47.220Z,3.63
2023-09-18T05:57:19.077Z,2.63
2023-09-18T05:59:46.392Z,2.72
2023-09-18T06:02:16.641Z,2.58
2023-09-18T06:04:46.111Z,2.38
2023-09-18T06:07:20.875Z,2.88
2023-09-18T06:09:48.484Z,2.85
2023-09-18T06:12:18.504Z,2.45
2023-09-18T06:17:16.172Z,2.53
2023-09-18T06:19:46.946Z,2.30
2023-09-18T06:22:16.773Z,2.83
2023-09-18T06:24:44.095Z,2.63
2023-09-18T06:27:12.550Z,2.65
2023-09-18T06:29:44.803Z,2.42
2023-09-18T06:32:12.297Z,3.08
2023-09-18T06:34:48.029Z,3.42
2023-09-18T06:37:15.119Z,2.75
2023-09-18T06:39:42.200Z,2.97
2023-09-18T06:42:10.880Z,2.97
2023-09-18T06:44:39.046Z,3.35
2023-09-18T06:47:06.394Z,2.97
2023-09-18T06:49:33.613Z,2.33
2023-09-18T06:52:00.485Z,3.47
2023-09-18T06:54:27.280Z,4.20
2023-09-18T06:56:56.440Z,2.97
2023-09-18T06:59:23.325Z,3.05
2023-09-18T07:01:50.315Z,2.90
2023-09-18T07:04:17.820Z,3.50
2023-09-18T07:06:44.753Z,3.22
2023-09-18T07:09:13.437Z,2.92
2023-09-18T07:11:40.420Z,3.10
2023-09-18T07:14:07.842Z,3.13
2023-09-18T07:16:35.471Z,2.55
2023-09-18T07:19:05.682Z,3.03
2023-09-18T07:21:32.829Z,2.38
2023-09-18T07:23:59.685Z,2.67
2023-09-18T07:26:26.833Z,2.55
2023-09-18T07:28:54.270Z,2.97
2023-09-18T07:31:23.621Z,3.03
2023-09-18T07:33:52.795Z,3.00
2023-09-18T07:36:19.939Z,2.17
2023-09-18T07:38:46.743Z,2.97
2023-09-18T07:41:16.927Z,3.00
2023-09-18T07:43:43.998Z,2.47
2023-09-18T07:46:10.872Z,2.80
2023-09-18T07:48:38.839Z,2.92
2023-09-18T07:51:06.435Z,3.00
2023-09-18T07:53:33.572Z,2.83
2023-09-18T07:56:07.221Z,2.28
2023-09-18T07:58:34.685Z,2.53
2023-09-18T08:01:01.663Z,2.63
2023-09-18T08:03:29.465Z,2.58
2023-09-18T08:05:56.824Z,2.55
2023-09-18T08:08:27.361Z,2.88
2023-09-18T08:10:54.815Z,2.90
2023-09-18T08:13:22.499Z,2.08
2023-09-18T08:15:50.163Z,2.78
2023-09-18T08:18:17.045Z,2.35
2023-09-18T08:20:44.519Z,3.20
2023-09-18T08:23:12.279Z,2.50
2023-09-18T08:25:41.161Z,3.15
2023-09-18T08:28:09.982Z,2.42
2023-09-18T08:30:38.422Z,3.08
2023-09-18T08:33:06.418Z,2.15
2023-09-18T08:35:33.632Z,1.75
2023-09-18T08:38:00.515Z,2.55
2023-09-18T08:40:28.091Z,2.95
2023-09-18T08:42:57.052Z,2.28
2023-09-18T08:45:32.622Z,2.72
2023-09-18T08:48:00.632Z,1.98
2023-09-18T08:50:29.667Z,2.67
2023-09-18T08:52:57.761Z,2.20
2023-09-18T08:55:25.775Z,2.40
2023-09-18T08:57:55.325Z,2.25
2023-09-18T09:00:22.250Z,2.30
2023-09-18T09:02:52.170Z,2.53
2023-09-18T09:05:19.762Z,1.80
2023-09-18T09:07:46.789Z,2.15
2023-09-18T09:10:13.757Z,2.00
2023-09-18T09:12:54.895Z,1.77
2023-09-18T09:15:24.212Z,1.92
2023-09-18T09:17:53.329Z,1.80
2023-09-18T09:20:20.518Z,1.58
2023-09-18T09:22:47.515Z,0.90
2023-09-18T09:25:35.627Z,1.77
2023-09-18T09:28:06.202Z,1.67
2023-09-18T09:30:35.487Z,1.50
2023-09-18T09:33:05.726Z,1.73
2023-09-18T09:35:37.408Z,1.30
2023-09-18T09:38:17.166Z,1.38
2023-09-18T09:40:47.314Z,1.25
2023-09-18T09:43:16.219Z,1.42
2023-09-18T09:45:43.999Z,1.67
2023-09-18T09:48:11.215Z,1.30
2023-09-18T09:50:50.289Z,1.60
2023-09-18T09:53:18.076Z,1.50
2023-09-18T09:55:45.703Z,1.88
2023-09-18T09:58:15.365Z,1.30
2023-09-18T10:00:46.703Z,1.27
2023-09-18T10:03:16.035Z,1.20
2023-09-18T10:05:45.452Z,1.67
2023-09-18T10:08:22.566Z,1.05
2023-09-18T10:10:53.860Z,1.30
2023-09-18T10:13:44.719Z,1.27
2023-09-18T10:16:13.073Z,1.10
2023-09-18T10:19:02.731Z,1.15
2023-09-18T10:21:49.523Z,1.20
2023-09-18T10:24:25.377Z,1.15
2023-09-18T10:27:01.776Z,1.20
2023-09-18T10:29:34.492Z,1.13
2023-09-18T10:32:05.557Z,0.90
2023-09-18T10:34:34.908Z,1.08
2023-09-18T10:37:07.726Z,0.88
2023-09-18T10:39:41.042Z,1.50
2023-09-18T10:42:09.964Z,1.27
2023-09-18T10:44:38.012Z,1.00
2023-09-18T10:47:07.065Z,1.27
2023-09-18T10:49:36.345Z,1.25
2023-09-18T10:52:04.913Z,1.42
2023-09-18T10:54:32.971Z,1.30
2023-09-18T10:57:00.239Z,1.30
2023-09-18T10:59:30.247Z,1.30
2023-09-18T11:01:57.365Z,1.33
2023-09-18T11:04:24.580Z,1.23
2023-09-18T11:06:56.983Z,1.38
2023-09-18T11:09:29.106Z,1.50
2023-09-18T11:12:03.437Z,1.60
2023-09-18T11:14:47.059Z,1.15
2023-09-18T11:17:39.602Z,1.10
2023-09-18T11:20:10.592Z,1.00
2023-09-18T11:22:38.893Z,1.33
2023-09-18T11:25:36.828Z,1.05
2023-09-18T11:28:07.599Z,1.10
2023-09-18T11:30:36.978Z,0.90
2023-09-18T11:33:06.243Z,1.27
2023-09-18T11:35:36.699Z,0.95
2023-09-18T11:38:09.099Z,0.70
2023-09-18T11:40:42.319Z,0.93
2023-09-18T11:43:27.557Z,1.10
2023-09-18T11:45:57.096Z,1.20
2023-09-18T11:48:28.899Z,1.10
2023-09-18T11:50:59.521Z,1.10
2023-09-18T11:53:29.543Z,0.68
2023-09-18T11:55:56.889Z,1.10
2023-09-18T11:58:27.065Z,0.95
2023-09-18T12:00:55.567Z,0.85
2023-09-18T12:03:27.396Z,1.10
2023-09-18T12:06:03.485Z,1.20
2023-09-18T12:08:32.352Z,0.95
2023-09-18T12:11:00.152Z,0.90
2023-09-18T12:13:28.457Z,0.65
2023-09-18T12:16:00.411Z,0.82
2023-09-18T12:18:30.811Z,1.05
2023-09-18T12:21:00.186Z,1.00
2023-09-18T12:23:28.691Z,1.10
2023-09-18T12:26:02.269Z,0.93
2023-09-18T12:28:29.957Z,1.00
2023-09-18T12:30:58.035Z,1.00
2023-09-18T12:33:25.519Z,1.00
2023-09-18T12:35:52.876Z,1.13
2023-09-18T12:38:24.213Z,0.95
2023-09-18T12:40:53.027Z,1.17
2023-09-18T12:43:20.532Z,0.90
2023-09-18T12:45:50.660Z,0.75
2023-09-18T12:48:17.909Z,0.77
2023-09-18T12:50:44.953Z,1.33
2023-09-18T12:53:15.323Z,0.95
2023-09-18T12:55:43.941Z,1.58
2023-09-18T12:58:15.074Z,1.10
2023-09-18T13:00:51.966Z,0.90
2023-09-18T13:03:19.672Z,1.30
2023-09-18T13:05:48.315Z,1.05
2023-09-18T13:08:16.751Z,1.13
2023-09-18T13:10:47.743Z,1.40
2023-09-18T13:13:23.136Z,1.77
2023-09-18T13:15:53.232Z,1.10
2023-09-18T13:18:24.914Z,1.60
2023-09-18T13:20:52.394Z,1.08
2023-09-18T13:23:22.729Z,1.30
2023-09-18T13:25:50.104Z,1.25
2023-09-18T13:28:19.390Z,1.10
2023-09-18T13:30:47.247Z,1.27
2023-09-18T13:33:18.227Z,1.10
2023-09-18T13:35:46.862Z,1.00
2023-09-18T13:38:14.907Z,1.00
2023-09-18T13:40:43.287Z,1.30
2023-09-18T13:43:11.198Z,1.15
2023-09-18T13:45:41.715Z,1.58
2023-09-18T13:48:09.122Z,1.10
2023-09-18T13:50:37.986Z,0.73
2023-09-18T13:53:08.168Z,1.40
2023-09-18T13:55:35.518Z,1.30
2023-09-18T13:58:05.644Z,1.27
2023-09-18T14:00:33.863Z,1.35
2023-09-18T14:03:01.119Z,1.13
2023-09-18T14:05:29.717Z,1.25
2023-09-18T14:08:00.998Z,1.38
2023-09-18T14:10:29.340Z,1.50
2023-09-18T14:12:56.231Z,1.13
2023-09-18T14:15:23.132Z,0.95
2023-09-18T14:17:52.405Z,1.40
2023-09-18T14:20:22.796Z,1.50
2023-09-18T14:22:51.378Z,1.00
2023-09-18T14:25:21.469Z,1.50
2023-09-18T14:27:48.793Z,1.83
2023-09-18T14:30:15.648Z,1.30
2023-09-18T14:32:42.676Z,1.40
2023-09-18T14:35:10.497Z,0.85
2023-09-18T14:37:38.298Z,1.02
2023-09-18T14:40:05.950Z,1.00
2023-09-18T14:42:34.486Z,1.38
2023-09-18T14:45:02.740Z,1.65
2023-09-18T14:47:30.456Z,0.90
2023-09-18T14:49:59.601Z,1.80
2023-09-18T14:52:27.143Z,1.77
2023-09-18T14:54:54.291Z,2.40
2023-09-18T14:57:21.077Z,1.83
2023-09-18T14:59:48.918Z,1.20
2023-09-18T15:02:17.584Z,1.55
2023-09-18T15:04:45.165Z,1.65
2023-09-18T15:07:12.445Z,1.65
2023-09-18T15:09:39.528Z,1.33
2023-09-18T15:12:09.890Z,1.55
2023-09-18T15:14:37.830Z,1.30
2023-09-18T15:17:05.079Z,1.30
2023-09-18T15:19:32.047Z,1.33
2023-09-18T15:21:59.551Z,1.33
2023-09-18T15:24:26.582Z,1.70
2023-09-18T15:26:53.510Z,1.27
2023-09-18T15:29:20.846Z,1.45
2023-09-18T15:31:48.398Z,1.35
2023-09-18T15:34:15.560Z,1.15
2023-09-18T15:36:42.496Z,1.35
2023-09-18T15:39:10.739Z,1.77
2023-09-18T15:41:39.678Z,0.95
2023-09-18T15:44:07.498Z,1.85
2023-09-18T15:46:35.710Z,1.05
2023-09-18T15:49:03.016Z,1.05
2023-09-18T15:51:29.989Z,0.93
2023-09-18T15:53:58.285Z,1.33
2023-09-18T15:56:25.377Z,0.82
2023-09-18T15:58:52.254Z,0.90
2023-09-18T16:01:19.687Z,0.93
2023-09-18T16:03:48.612Z,0.88
2023-09-18T16:06:19.314Z,1.63
2023-09-18T16:08:46.362Z,1.05
2023-09-18T16:11:16.302Z,1.05
2023-09-18T16:13:43.644Z,1.23
2023-09-18T16:16:10.819Z,1.25
2023-09-18T16:18:38.295Z,1.20
2023-09-18T16:21:08.123Z,0.80
2023-09-18T16:23:36.717Z,1.20
2023-09-18T16:26:05.134Z,1.00
2023-09-18T16:28:32.253Z,1.10
2023-09-18T16:31:05.797Z,1.58
2023-09-18T16:33:32.700Z,1.20
2023-09-18T16:35:59.637Z,1.25
2023-09-18T16:38:26.595Z,1.05
2023-09-18T16:40:54.183Z,1.15
2023-09-18T16:43:23.132Z,1.20
2023-09-18T16:45:49.981Z,1.27
2023-09-18T16:48:16.940Z,1.00
2023-09-18T16:50:44.618Z,1.45
2023-09-18T16:53:11.479Z,1.30
2023-09-18T16:55:38.462Z,1.20
2023-09-18T16:58:05.313Z,1.27
2023-09-18T17:00:32.393Z,1.17
2023-09-18T17:02:59.356Z,1.17
2023-09-18T17:05:26.389Z,1.40
2023-09-18T17:07:53.239Z,1.08
2023-09-18T17:10:20.157Z,1.10
2023-09-18T17:12:47.044Z,1.70
2023-09-18T17:15:15.464Z,1.50
2023-09-18T17:17:42.349Z,1.50
2023-09-18T17:20:09.471Z,1.55
2023-09-18T17:22:36.860Z,1.25
2023-09-18T17:25:06.563Z,1.55
2023-09-18T17:27:34.135Z,1.30
2023-09-18T17:30:02.311Z,1.40
2023-09-18T17:32:29.676Z,1.20
2023-09-18T17:34:56.532Z,1.20
2023-09-18T17:37:26.936Z,1.05
2023-09-18T17:39:54.587Z,1.50
2023-09-18T17:42:21.891Z,1.05
2023-09-18T17:44:50.616Z,0.98
2023-09-18T17:47:22.620Z,1.10
2023-09-18T17:49:51.996Z,1.08
2023-09-18T17:52:19.217Z,0.93
2023-09-18T17:54:46.071Z,1.17
2023-09-18T17:57:13.254Z,1.45
2023-09-18T17:59:40.265Z,1.13
2023-09-18T18:02:08.170Z,1.10
2023-09-18T18:04:36.228Z,1.20
2023-09-18T18:07:03.982Z,1.55
2023-09-18T18:09:31.258Z,0.80
2023-09-18T18:11:58.438Z,1.50
2023-09-18T18:14:28.915Z,1.15
2023-09-18T18:17:03.589Z,1.30
2023-09-18T18:19:33.266Z,1.42
2023-09-18T18:22:00.230Z,1.33
2023-09-18T18:24:27.081Z,1.00
2023-09-18T18:26:54.858Z,1.20
2023-09-18T18:29:22.506Z,1.00
2023-09-18T18:31:51.007Z,1.13
2023-09-18T18:34:18.811Z,0.82
2023-09-18T18:37:01.890Z,1.00
2023-09-18T18:39:33.427Z,1.02
2023-09-18T18:42:08.284Z,0.90
2023-09-18T18:45:22.134Z,0.70
2023-09-18T18:47:47.964Z,0.77
2023-09-18T18:50:13.711Z,0.90
2023-09-18T18:52:40.791Z,0.80
2023-09-18T18:55:09.074Z,0.75
2023-09-18T18:57:41.123Z,0.80
2023-09-18T19:00:13.337Z,0.68
2023-09-18T19:02:41.647Z,0.70
2023-09-18T19:05:29.531Z,0.70
2023-09-18T19:07:56.907Z,0.57
2023-09-18T19:10:26.301Z,0.80
2023-09-18T19:13:01.796Z,0.65
2023-09-18T19:15:32.542Z,0.60
2023-09-18T19:17:59.816Z,0.47
2023-09-18T19:20:29.384Z,0.80
2023-09-18T19:22:59.359Z,0.68
2023-09-18T19:25:35.502Z,0.47
2023-09-18T19:28:02.827Z,0.82
2023-09-18T19:30:31.336Z,0.75
2023-09-18T19:32:58.204Z,0.50
2023-09-18T19:35:25.123Z,0.55
2023-09-18T19:37:52.276Z,0.55
2023-09-18T19:40:20.608Z,0.60
2023-09-18T19:42:49.738Z,0.90
2023-09-18T19:45:18.767Z,0.73
2023-09-18T19:47:45.968Z,0.93
2023-09-18T19:50:14.231Z,1.02
2023-09-18T19:52:41.091Z,1.02
2023-09-18T19:55:09.362Z,0.60
2023-09-18T19:57:41.024Z,0.60
2023-09-18T20:00:11.026Z,0.73
2023-09-18T20:02:40.372Z,0.82
2023-09-18T20:05:07.739Z,0.60
2023-09-18T20:07:35.681Z,0.80
2023-09-18T20:10:04.640Z,0.70
2023-09-18T20:12:36.100Z,0.52
2023-09-18T20:15:03.974Z,0.80
2023-09-18T20:17:34.274Z,0.73
2023-09-18T20:20:14.579Z,1.00
2023-09-18T20:22:42.059Z,1.10
2023-09-18T20:25:15.064Z,0.75
2023-09-18T20:27:55.483Z,0.50
2023-09-18T20:30:23.329Z,0.80
2023-09-18T20:32:57.898Z,0.70
2023-09-18T20:35:31.851Z,1.15
2023-09-18T20:38:00.173Z,0.73
2023-09-18T20:40:27.488Z,1.77
2023-09-18T20:42:57.000Z,0.95
2023-09-18T20:45:26.354Z,0.60
2023-09-18T20:47:53.621Z,0.98
2023-09-18T20:50:21.528Z,1.25
2023-09-18T20:52:49.169Z,0.70
2023-09-18T20:55:23.858Z,1.38
2023-09-18T20:57:57.530Z,2.20
2023-09-18T21:00:26.895Z,1.02
2023-09-18T21:03:05.698Z,1.35
2023-09-18T21:05:35.017Z,0.93
2023-09-18T21:08:02.171Z,0.93
2023-09-18T21:13:01.733Z,0.80
2023-09-18T21:15:36.018Z,1.10
2023-09-18T21:18:03.942Z,1.58
2023-09-18T21:20:31.383Z,1.13
2023-09-18T21:23:04.236Z,1.30
2023-09-18T21:25:36.541Z,1.10
2023-09-18T21:28:05.230Z,1.00
2023-09-18T21:30:32.596Z,1.10
2023-09-18T21:33:01.060Z,0.85
2023-09-18T21:35:29.361Z,1.10
2023-09-18T21:38:02.374Z,1.13
2023-09-18T21:40:31.430Z,1.30
2023-09-18T21:43:03.000Z,1.10
2023-09-18T21:45:37.995Z,1.15
2023-09-18T21:48:10.038Z,1.20
2023-09-18T21:50:37.184Z,1.15
2023-09-18T21:53:05.940Z,1.20
2023-09-18T21:55:35.893Z,0.82
2023-09-18T21:58:09.161Z,0.77
2023-09-18T22:00:41.538Z,1.40
2023-09-18T22:03:12.150Z,0.93
2023-09-18T22:05:46.173Z,1.40
2023-09-18T22:08:16.222Z,0.70
2023-09-18T22:10:43.345Z,0.80
2023-09-18T22:13:12.099Z,0.95
2023-09-18T22:15:39.663Z,1.05
2023-09-18T22:18:06.868Z,0.98
2023-09-18T22:20:34.401Z,1.17
2023-09-18T22:23:05.575Z,1.00
2023-09-18T22:25:39.027Z,0.88
2023-09-18T22:28:08.321Z,0.80
2023-09-18T22:30:35.617Z,0.77
2023-09-18T22:33:05.573Z,0.80
2023-09-18T22:35:32.485Z,1.13
2023-09-18T22:38:25.532Z,1.02
2023-09-18T22:40:57.808Z,0.88
2023-09-18T22:44:02.533Z,1.10
2023-09-18T22:47:10.474Z,0.88
2023-09-18T22:50:14.961Z,0.90
2023-09-18T22:52:46.550Z,0.98
2023-09-18T22:55:13.608Z,1.15
2023-09-18T22:57:46.825Z,1.20
2023-09-18T23:00:16.415Z,0.70
2023-09-18T23:02:44.769Z,0.80
2023-09-18T23:05:18.533Z,0.90
2023-09-18T23:07:56.861Z,1.02
2023-09-18T23:10:26.671Z,1.42
2023-09-18T23:13:00.357Z,0.88
2023-09-18T23:15:28.687Z,0.75
2023-09-18T23:17:57.092Z,0.88
2023-09-18T23:20:27.463Z,0.70
2023-09-18T23:22:58.745Z,1.20
2023-09-18T23:25:26.740Z,1.13
2023-09-18T23:27:53.917Z,1.10
2023-09-18T23:30:21.546Z,1.85
2023-09-18T23:33:00.423Z,1.17
2023-09-18T23:35:34.361Z,1.00
2023-09-18T23:38:09.473Z,0.80
2023-09-18T23:40:38.534Z,1.27
2023-09-18T23:43:08.321Z,1.65
2023-09-18T23:45:45.357Z,1.45
2023-09-18T23:48:19.952Z,1.38
2023-09-18T23:50:50.199Z,0.98
2023-09-18T23:53:19.570Z,1.10
2023-09-18T23:55:51.321Z,0.63
2023-09-18T23:58:25.635Z,1.00
